sensor_id;sensor_type;location;lat;lon;timestamp;P1;durP1;ratioP1;P2;durP2;ratioP2
50056;SDS011;36875;49.468;11.200;2023-01-15T00:00:37;2.90;;;1.10;;
50056;SDS011;36875;49.468;11.200;2023-01-15T00:03:02;2.25;;;1.25;;
50056;SDS011;36875;49.468;11.200;2023-01-15T00:05:28;3.38;;;1.40;;
50056;SDS011;36875;49.468;11.200;2023-01-15T00:07:53;1.48;;;0.93;;
50056;SDS011;36875;49.468;11.200;2023-01-15T00:10:19;2.30;;;1.00;;
50056;SDS011;36875;49.468;11.200;2023-01-15T00:12:44;3.83;;;1.25;;
50056;SDS011;36875;49.468;11.200;2023-01-15T00:15:10;1.80;;;1.00;;
50056;SDS011;36875;49.468;11.200;2023-01-15T00:17:37;2.30;;;1.30;;
50056;SDS011;36875;49.468;11.200;2023-01-15T00:20:03;5.28;;;1.23;;
50056;SDS011;36875;49.468;11.200;2023-01-15T00:22:29;2.08;;;1.17;;
50056;SDS011;36875;49.468;11.200;2023-01-15T00:24:54;2.10;;;1.13;;
50056;SDS011;36875;49.468;11.200;2023-01-15T00:27:40;2.53;;;1.20;;
50056;SDS011;36875;49.468;11.200;2023-01-15T00:30:09;1.80;;;1.10;;
50056;SDS011;36875;49.468;11.200;2023-01-15T00:32:37;2.22;;;1.20;;
50056;SDS011;36875;49.468;11.200;2023-01-15T00:35:03;2.72;;;0.98;;
50056;SDS011;36875;49.468;11.200;2023-01-15T00:37:30;1.45;;;0.88;;
50056;SDS011;36875;49.468;11.200;2023-01-15T00:39:55;2.50;;;1.13;;
50056;SDS011;36875;49.468;11.200;2023-01-15T00:42:21;1.38;;;1.00;;
50056;SDS011;36875;49.468;11.200;2023-01-15T00:44:46;2.78;;;1.05;;
50056;SDS011;36875;49.468;11.200;2023-01-15T00:47:12;1.92;;;1.17;;
50056;SDS011;36875;49.468;11.200;2023-01-15T00:49:40;1.90;;;0.80;;
50056;SDS011;36875;49.468;11.200;2023-01-15T00:52:06;1.17;;;0.85;;
50056;SDS011;36875;49.468;11.200;2023-01-15T00:54:32;1.88;;;0.85;;
50056;SDS011;36875;49.468;11.200;2023-01-15T00:56:58;1.42;;;1.05;;
50056;SDS011;36875;49.468;11.200;2023-01-15T00:59:24;1.95;;;0.73;;
50056;SDS011;36875;49.468;11.200;2023-01-15T01:01:49;1.38;;;0.93;;
50056;SDS011;36875;49.468;11.200;2023-01-15T01:04:15;1.42;;;0.88;;
50056;SDS011;36875;49.468;11.200;2023-01-15T01:06:42;1.35;;;0.88;;
50056;SDS011;36875;49.468;11.200;2023-01-15T01:09:09;1.55;;;0.77;;
50056;SDS011;36875;49.468;11.200;2023-01-15T01:11:36;1.40;;;0.70;;
50056;SDS011;36875;49.468;11.200;2023-01-15T01:14:01;1.75;;;1.00;;
50056;SDS011;36875;49.468;11.200;2023-01-15T01:16:28;2.45;;;1.67;;
50056;SDS011;36875;49.468;11.200;2023-01-15T01:18:56;1.02;;;0.73;;
50056;SDS011;36875;49.468;11.200;2023-01-15T01:21:22;1.20;;;0.80;;
50056;SDS011;36875;49.468;11.200;2023-01-15T01:23:49;2.10;;;0.73;;
50056;SDS011;36875;49.468;11.200;2023-01-15T01:26:15;1.13;;;0.75;;
50056;SDS011;36875;49.468;11.200;2023-01-15T01:28:41;1.13;;;0.65;;
50056;SDS011;36875;49.468;11.200;2023-01-15T01:31:07;1.77;;;0.80;;
50056;SDS011;36875;49.468;11.200;2023-01-15T01:33:33;1.60;;;0.80;;
50056;SDS011;36875;49.468;11.200;2023-01-15T01:35:59;1.50;;;0.90;;
50056;SDS011;36875;49.468;11.200;2023-01-15T01:38:24;1.35;;;0.75;;
50056;SDS011;36875;49.468;11.200;2023-01-15T01:40:51;1.73;;;0.80;;
50056;SDS011;36875;49.468;11.200;2023-01-15T01:43:17;2.17;;;0.77;;
50056;SDS011;36875;49.468;11.200;2023-01-15T01:45:45;1.60;;;0.80;;
50056;SDS011;36875;49.468;11.200;2023-01-15T01:48:10;0.73;;;0.70;;
50056;SDS011;36875;49.468;11.200;2023-01-15T01:50:38;1.58;;;0.80;;
50056;SDS011;36875;49.468;11.200;2023-01-15T01:53:05;2.00;;;1.00;;
50056;SDS011;36875;49.468;11.200;2023-01-15T01:55:35;1.13;;;0.60;;
50056;SDS011;36875;49.468;11.200;2023-01-15T01:58:03;1.20;;;0.60;;
50056;SDS011;36875;49.468;11.200;2023-01-15T02:00:32;1.20;;;0.73;;
50056;SDS011;36875;49.468;11.200;2023-01-15T02:02:59;1.33;;;0.80;;
50056;SDS011;36875;49.468;11.200;2023-01-15T02:05:28;1.20;;;0.68;;
50056;SDS011;36875;49.468;11.200;2023-01-15T02:07:55;1.08;;;0.70;;
50056;SDS011;36875;49.468;11.200;2023-01-15T02:10:21;1.63;;;0.73;;
50056;SDS011;36875;49.468;11.200;2023-01-15T02:12:48;0.90;;;0.70;;
50056;SDS011;36875;49.468;11.200;2023-01-15T02:15:20;1.10;;;0.65;;
50056;SDS011;36875;49.468;11.200;2023-01-15T02:17:53;1.52;;;0.80;;
50056;SDS011;36875;49.468;11.200;2023-01-15T02:20:27;1.23;;;0.63;;
50056;SDS011;36875;49.468;11.200;2023-01-15T02:28:33;0.68;;;0.60;;
50056;SDS011;36875;49.468;11.200;2023-01-15T02:31:01;0.70;;;0.60;;
50056;SDS011;36875;49.468;11.200;2023-01-15T02:33:34;1.48;;;0.65;;
50056;SDS011;36875;49.468;11.200;2023-01-15T02:36:03;0.75;;;0.50;;
50056;SDS011;36875;49.468;11.200;2023-01-15T02:38:33;0.93;;;0.60;;
50056;SDS011;36875;49.468;11.200;2023-01-15T02:41:02;1.80;;;0.65;;
50056;SDS011;36875;49.468;11.200;2023-01-15T02:43:33;1.40;;;0.60;;
50056;SDS011;36875;49.468;11.200;2023-01-15T02:46:01;1.33;;;0.60;;
50056;SDS011;36875;49.468;11.200;2023-01-15T02:48:30;0.80;;;0.50;;
50056;SDS011;36875;49.468;11.200;2023-01-15T02:51:00;0.82;;;0.40;;
50056;SDS011;36875;49.468;11.200;2023-01-15T02:53:31;0.55;;;0.40;;
50056;SDS011;36875;49.468;11.200;2023-01-15T02:56:00;1.23;;;0.60;;
50056;SDS011;36875;49.468;11.200;2023-01-15T02:58:31;0.60;;;0.45;;
50056;SDS011;36875;49.468;11.200;2023-01-15T03:01:01;0.50;;;0.40;;
50056;SDS011;36875;49.468;11.200;2023-01-15T03:03:36;0.80;;;0.47;;
50056;SDS011;36875;49.468;11.200;2023-01-15T03:06:08;0.55;;;0.40;;
50056;SDS011;36875;49.468;11.200;2023-01-15T03:08:38;0.57;;;0.40;;
50056;SDS011;36875;49.468;11.200;2023-01-15T03:11:04;0.65;;;0.43;;
50056;SDS011;36875;49.468;11.200;2023-01-15T03:13:36;0.47;;;0.38;;
50056;SDS011;36875;49.468;11.200;2023-01-15T03:16:10;0.98;;;0.60;;
50056;SDS011;36875;49.468;11.200;2023-01-15T03:19:03;0.30;;;0.30;;
50056;SDS011;36875;49.468;11.200;2023-01-15T03:21:35;1.15;;;0.47;;
50056;SDS011;36875;49.468;11.200;2023-01-15T03:24:07;0.68;;;0.57;;
50056;SDS011;36875;49.468;11.200;2023-01-15T03:26:35;1.08;;;0.60;;
50056;SDS011;36875;49.468;11.200;2023-01-15T03:29:03;0.40;;;0.35;;
50056;SDS011;36875;49.468;11.200;2023-01-15T03:33:57;0.77;;;0.38;;
50056;SDS011;36875;49.468;11.200;2023-01-15T03:36:22;1.10;;;0.50;;
50056;SDS011;36875;49.468;11.200;2023-01-15T03:38:48;0.60;;;0.40;;
50056;SDS011;36875;49.468;11.200;2023-01-15T03:41:17;0.63;;;0.40;;
50056;SDS011;36875;49.468;11.200;2023-01-15T03:43:51;0.95;;;0.40;;
50056;SDS011;36875;49.468;11.200;2023-01-15T03:46:30;0.82;;;0.40;;
50056;SDS011;36875;49.468;11.200;2023-01-15T03:49:05;0.63;;;0.30;;
50056;SDS011;36875;49.468;11.200;2023-01-15T03:51:37;0.45;;;0.30;;
50056;SDS011;36875;49.468;11.200;2023-01-15T03:54:08;0.63;;;0.50;;
50056;SDS011;36875;49.468;11.200;2023-01-15T03:56:40;0.30;;;0.30;;
50056;SDS011;36875;49.468;11.200;2023-01-15T03:59:20;1.20;;;0.50;;
50056;SDS011;36875;49.468;11.200;2023-01-15T04:01:49;1.08;;;0.50;;
50056;SDS011;36875;49.468;11.200;2023-01-15T04:04:16;0.57;;;0.40;;
50056;SDS011;36875;49.468;11.200;2023-01-15T04:06:42;0.77;;;0.40;;
50056;SDS011;36875;49.468;11.200;2023-01-15T04:09:08;0.68;;;0.45;;
50056;SDS011;36875;49.468;11.200;2023-01-15T04:11:36;0.57;;;0.30;;
50056;SDS011;36875;49.468;11.200;2023-01-15T04:14:02;0.63;;;0.38;;
50056;SDS011;36875;49.468;11.200;2023-01-15T04:16:28;0.57;;;0.50;;
50056;SDS011;36875;49.468;11.200;2023-01-15T04:18:56;0.60;;;0.40;;
50056;SDS011;36875;49.468;11.200;2023-01-15T04:21:22;0.52;;;0.30;;
50056;SDS011;36875;49.468;11.200;2023-01-15T04:23:47;0.30;;;0.30;;
50056;SDS011;36875;49.468;11.200;2023-01-15T04:26:13;0.38;;;0.35;;
50056;SDS011;36875;49.468;11.200;2023-01-15T04:28:39;0.70;;;0.40;;
50056;SDS011;36875;49.468;11.200;2023-01-15T04:31:05;0.85;;;0.47;;
50056;SDS011;36875;49.468;11.200;2023-01-15T04:33:33;0.77;;;0.47;;
50056;SDS011;36875;49.468;11.200;2023-01-15T04:36:01;0.30;;;0.28;;
50056;SDS011;36875;49.468;11.200;2023-01-15T04:38:27;0.57;;;0.38;;
50056;SDS011;36875;49.468;11.200;2023-01-15T04:40:53;0.38;;;0.30;;
50056;SDS011;36875;49.468;11.200;2023-01-15T04:43:37;0.90;;;0.30;;
50056;SDS011;36875;49.468;11.200;2023-01-15T04:46:21;0.40;;;0.40;;
50056;SDS011;36875;49.468;11.200;2023-01-15T04:48:47;0.38;;;0.38;;
50056;SDS011;36875;49.468;11.200;2023-01-15T04:51:14;1.27;;;0.30;;
50056;SDS011;36875;49.468;11.200;2023-01-15T04:53:40;0.65;;;0.32;;
50056;SDS011;36875;49.468;11.200;2023-01-15T04:56:05;0.22;;;0.22;;
50056;SDS011;36875;49.468;11.200;2023-01-15T04:58:31;0.30;;;0.30;;
50056;SDS011;36875;49.468;11.200;2023-01-15T05:00:57;0.57;;;0.30;;
50056;SDS011;36875;49.468;11.200;2023-01-15T05:03:24;0.40;;;0.40;;
50056;SDS011;36875;49.468;11.200;2023-01-15T05:05:50;0.43;;;0.32;;
50056;SDS011;36875;49.468;11.200;2023-01-15T05:08:17;0.90;;;0.40;;
50056;SDS011;36875;49.468;11.200;2023-01-15T05:10:42;0.20;;;0.20;;
50056;SDS011;36875;49.468;11.200;2023-01-15T05:13:08;0.38;;;0.30;;
50056;SDS011;36875;49.468;11.200;2023-01-15T05:15:33;0.47;;;0.38;;
50056;SDS011;36875;49.468;11.200;2023-01-15T05:17:59;0.35;;;0.35;;
50056;SDS011;36875;49.468;11.200;2023-01-15T05:20:24;0.88;;;0.50;;
50056;SDS011;36875;49.468;11.200;2023-01-15T05:22:50;0.47;;;0.30;;
50056;SDS011;36875;49.468;11.200;2023-01-15T05:25:16;0.52;;;0.45;;
50056;SDS011;36875;49.468;11.200;2023-01-15T05:27:42;0.30;;;0.30;;
50056;SDS011;36875;49.468;11.200;2023-01-15T05:30:08;0.52;;;0.52;;
50056;SDS011;36875;49.468;11.200;2023-01-15T05:32:34;0.60;;;0.28;;
50056;SDS011;36875;49.468;11.200;2023-01-15T05:35:00;0.95;;;0.40;;
50056;SDS011;36875;49.468;11.200;2023-01-15T05:37:25;0.35;;;0.35;;
50056;SDS011;36875;49.468;11.200;2023-01-15T05:39:53;0.50;;;0.35;;
50056;SDS011;36875;49.468;11.200;2023-01-15T05:42:20;0.40;;;0.28;;
50056;SDS011;36875;49.468;11.200;2023-01-15T05:44:45;0.20;;;0.20;;
50056;SDS011;36875;49.468;11.200;2023-01-15T05:47:11;0.50;;;0.30;;
50056;SDS011;36875;49.468;11.200;2023-01-15T05:49:36;0.43;;;0.30;;
50056;SDS011;36875;49.468;11.200;2023-01-15T05:52:02;0.38;;;0.30;;
50056;SDS011;36875;49.468;11.200;2023-01-15T05:54:28;0.95;;;0.20;;
50056;SDS011;36875;49.468;11.200;2023-01-15T05:56:55;0.30;;;0.20;;
50056;SDS011;36875;49.468;11.200;2023-01-15T05:59:22;0.45;;;0.30;;
50056;SDS011;36875;49.468;11.200;2023-01-15T06:01:49;0.28;;;0.28;;
50056;SDS011;36875;49.468;11.200;2023-01-15T06:04:15;1.63;;;0.50;;
50056;SDS011;36875;49.468;11.200;2023-01-15T06:06:45;0.40;;;0.32;;
50056;SDS011;36875;49.468;11.200;2023-01-15T06:09:12;0.52;;;0.20;;
50056;SDS011;36875;49.468;11.200;2023-01-15T06:11:37;0.45;;;0.28;;
50056;SDS011;36875;49.468;11.200;2023-01-15T06:14:03;0.10;;;0.10;;
50056;SDS011;36875;49.468;11.200;2023-01-15T06:16:30;0.20;;;0.20;;
50056;SDS011;36875;49.468;11.200;2023-01-15T06:18:58;0.30;;;0.30;;
50056;SDS011;36875;49.468;11.200;2023-01-15T06:21:25;1.17;;;0.32;;
50056;SDS011;36875;49.468;11.200;2023-01-15T06:23:51;0.28;;;0.15;;
50056;SDS011;36875;49.468;11.200;2023-01-15T06:26:18;0.25;;;0.20;;
50056;SDS011;36875;49.468;11.200;2023-01-15T06:28:44;0.28;;;0.20;;
50056;SDS011;36875;49.468;11.200;2023-01-15T06:31:11;0.28;;;0.20;;
50056;SDS011;36875;49.468;11.200;2023-01-15T06:33:38;0.13;;;0.13;;
50056;SDS011;36875;49.468;11.200;2023-01-15T06:36:05;0.47;;;0.20;;
50056;SDS011;36875;49.468;11.200;2023-01-15T06:38:31;0.32;;;0.20;;
50056;SDS011;36875;49.468;11.200;2023-01-15T06:40:57;0.10;;;0.10;;
50056;SDS011;36875;49.468;11.200;2023-01-15T06:43:23;2.15;;;0.32;;
50056;SDS011;36875;49.468;11.200;2023-01-15T06:46:08;0.40;;;0.30;;
50056;SDS011;36875;49.468;11.200;2023-01-15T06:48:53;0.35;;;0.25;;
50056;SDS011;36875;49.468;11.200;2023-01-15T06:51:19;0.20;;;0.20;;
50056;SDS011;36875;49.468;11.200;2023-01-15T06:53:45;0.22;;;0.22;;
50056;SDS011;36875;49.468;11.200;2023-01-15T06:56:11;0.38;;;0.20;;
50056;SDS011;36875;49.468;11.200;2023-01-15T06:58:38;0.22;;;0.22;;
50056;SDS011;36875;49.468;11.200;2023-01-15T07:01:08;0.40;;;0.22;;
50056;SDS011;36875;49.468;11.200;2023-01-15T07:03:34;0.22;;;0.10;;
50056;SDS011;36875;49.468;11.200;2023-01-15T07:06:05;0.20;;;0.13;;
50056;SDS011;36875;49.468;11.200;2023-01-15T07:08:31;0.20;;;0.20;;
50056;SDS011;36875;49.468;11.200;2023-01-15T07:11:00;0.30;;;0.22;;
50056;SDS011;36875;49.468;11.200;2023-01-15T07:13:26;0.30;;;0.20;;
50056;SDS011;36875;49.468;11.200;2023-01-15T07:15:52;0.10;;;0.10;;
50056;SDS011;36875;49.468;11.200;2023-01-15T07:18:17;0.20;;;0.10;;
50056;SDS011;36875;49.468;11.200;2023-01-15T07:20:43;0.38;;;0.20;;
50056;SDS011;36875;49.468;11.200;2023-01-15T07:23:09;0.45;;;0.20;;
50056;SDS011;36875;49.468;11.200;2023-01-15T07:25:35;0.10;;;0.10;;
50056;SDS011;36875;49.468;11.200;2023-01-15T07:28:02;0.25;;;0.20;;
50056;SDS011;36875;49.468;11.200;2023-01-15T07:30:28;0.20;;;0.20;;
50056;SDS011;36875;49.468;11.200;2023-01-15T07:32:54;0.22;;;0.22;;
50056;SDS011;36875;49.468;11.200;2023-01-15T07:35:20;0.10;;;0.10;;
50056;SDS011;36875;49.468;11.200;2023-01-15T07:37:49;0.20;;;0.20;;
50056;SDS011;36875;49.468;11.200;2023-01-15T07:40:16;0.15;;;0.10;;
50056;SDS011;36875;49.468;11.200;2023-01-15T07:42:42;0.20;;;0.20;;
50056;SDS011;36875;49.468;11.200;2023-01-15T07:45:26;0.20;;;0.20;;
50056;SDS011;36875;49.468;11.200;2023-01-15T07:48:10;0.20;;;0.17;;
50056;SDS011;36875;49.468;11.200;2023-01-15T07:50:54;0.20;;;0.10;;
50056;SDS011;36875;49.468;11.200;2023-01-15T07:53:20;0.20;;;0.20;;
50056;SDS011;36875;49.468;11.200;2023-01-15T07:55:46;0.20;;;0.20;;
50056;SDS011;36875;49.468;11.200;2023-01-15T07:58:12;0.50;;;0.20;;
50056;SDS011;36875;49.468;11.200;2023-01-15T08:00:37;2.47;;;0.70;;
50056;SDS011;36875;49.468;11.200;2023-01-15T08:03:03;1.55;;;0.30;;
50056;SDS011;36875;49.468;11.200;2023-01-15T08:05:30;1.65;;;0.40;;
50056;SDS011;36875;49.468;11.200;2023-01-15T08:07:55;3.42;;;0.68;;
50056;SDS011;36875;49.468;11.200;2023-01-15T08:10:21;4.07;;;0.40;;
50056;SDS011;36875;49.468;11.200;2023-01-15T08:12:49;2.08;;;0.52;;
50056;SDS011;36875;49.468;11.200;2023-01-15T08:15:36;3.10;;;0.65;;
50056;SDS011;36875;49.468;11.200;2023-01-15T08:18:03;2.00;;;0.52;;
50056;SDS011;36875;49.468;11.200;2023-01-15T08:20:29;2.72;;;0.40;;
50056;SDS011;36875;49.468;11.200;2023-01-15T08:22:55;1.13;;;0.50;;
50056;SDS011;36875;49.468;11.200;2023-01-15T08:25:21;1.95;;;0.70;;
50056;SDS011;36875;49.468;11.200;2023-01-15T08:27:50;1.58;;;0.50;;
50056;SDS011;36875;49.468;11.200;2023-01-15T08:30:17;2.10;;;0.60;;
50056;SDS011;36875;49.468;11.200;2023-01-15T08:32:43;3.13;;;0.50;;
50056;SDS011;36875;49.468;11.200;2023-01-15T08:35:09;1.33;;;0.60;;
50056;SDS011;36875;49.468;11.200;2023-01-15T08:37:37;3.60;;;0.50;;
50056;SDS011;36875;49.468;11.200;2023-01-15T08:40:03;3.03;;;0.88;;
50056;SDS011;36875;49.468;11.200;2023-01-15T08:42:29;2.67;;;0.68;;
50056;SDS011;36875;49.468;11.200;2023-01-15T08:44:55;2.70;;;0.60;;
50056;SDS011;36875;49.468;11.200;2023-01-15T08:47:21;5.45;;;0.88;;
50056;SDS011;36875;49.468;11.200;2023-01-15T08:49:46;6.82;;;0.60;;
50056;SDS011;36875;49.468;11.200;2023-01-15T08:52:12;7.00;;;0.73;;
50056;SDS011;36875;49.468;11.200;2023-01-15T08:54:37;2.72;;;0.73;;
50056;SDS011;36875;49.468;11.200;2023-01-15T08:57:03;2.72;;;0.70;;
50056;SDS011;36875;49.468;11.200;2023-01-15T08:59:29;5.35;;;0.98;;
50056;SDS011;36875;49.468;11.200;2023-01-15T09:01:55;3.55;;;0.77;;
50056;SDS011;36875;49.468;11.200;2023-01-15T09:04:21;3.20;;;1.00;;
50056;SDS011;36875;49.468;11.200;2023-01-15T09:06:47;6.60;;;1.00;;
50056;SDS011;36875;49.468;11.200;2023-01-15T09:09:13;3.70;;;0.90;;
50056;SDS011;36875;49.468;11.200;2023-01-15T09:11:39;5.40;;;1.08;;
50056;SDS011;36875;49.468;11.200;2023-01-15T09:14:05;6.53;;;1.08;;
50056;SDS011;36875;49.468;11.200;2023-01-15T09:16:31;6.70;;;1.30;;
50056;SDS011;36875;49.468;11.200;2023-01-15T09:18:58;6.20;;;1.20;;
50056;SDS011;36875;49.468;11.200;2023-01-15T09:21:24;6.85;;;1.05;;
50056;SDS011;36875;49.468;11.200;2023-01-15T09:23:49;4.70;;;0.93;;
50056;SDS011;36875;49.468;11.200;2023-01-15T09:26:26;8.07;;;1.02;;
50056;SDS011;36875;49.468;11.200;2023-01-15T09:28:53;7.47;;;1.00;;
50056;SDS011;36875;49.468;11.200;2023-01-15T09:31:19;3.10;;;0.95;;
50056;SDS011;36875;49.468;11.200;2023-01-15T09:33:44;6.65;;;1.08;;
50056;SDS011;36875;49.468;11.200;2023-01-15T09:36:14;10.02;;;1.60;;
50056;SDS011;36875;49.468;11.200;2023-01-15T09:38:40;6.60;;;1.23;;
50056;SDS011;36875;49.468;11.200;2023-01-15T09:41:07;4.35;;;0.80;;
50056;SDS011;36875;49.468;11.200;2023-01-15T09:43:58;5.18;;;0.70;;
50056;SDS011;36875;49.468;11.200;2023-01-15T09:46:38;5.72;;;0.90;;
50056;SDS011;36875;49.468;11.200;2023-01-15T09:49:14;6.78;;;1.10;;
50056;SDS011;36875;49.468;11.200;2023-01-15T09:51:53;4.10;;;0.90;;
50056;SDS011;36875;49.468;11.200;2023-01-15T09:54:30;3.38;;;0.80;;
50056;SDS011;36875;49.468;11.200;2023-01-15T09:57:08;4.38;;;0.70;;
50056;SDS011;36875;49.468;11.200;2023-01-15T09:59:36;4.25;;;1.08;;
50056;SDS011;36875;49.468;11.200;2023-01-15T10:02:11;3.78;;;0.80;;
50056;SDS011;36875;49.468;11.200;2023-01-15T10:04:44;7.68;;;1.10;;
50056;SDS011;36875;49.468;11.200;2023-01-15T10:07:16;4.13;;;0.80;;
50056;SDS011;36875;49.468;11.200;2023-01-15T10:09:50;4.60;;;1.00;;
50056;SDS011;36875;49.468;11.200;2023-01-15T10:12:24;7.10;;;0.93;;
50056;SDS011;36875;49.468;11.200;2023-01-15T10:15:03;4.88;;;1.05;;
50056;SDS011;36875;49.468;11.200;2023-01-15T10:17:39;3.97;;;0.75;;
50056;SDS011;36875;49.468;11.200;2023-01-15T10:20:11;3.13;;;0.90;;
50056;SDS011;36875;49.468;11.200;2023-01-15T10:22:46;5.30;;;0.73;;
50056;SDS011;36875;49.468;11.200;2023-01-15T10:25:26;11.35;;;0.90;;
50056;SDS011;36875;49.468;11.200;2023-01-15T10:27:56;6.20;;;1.30;;
50056;SDS011;36875;49.468;11.200;2023-01-15T10:30:32;5.43;;;1.05;;
50056;SDS011;36875;49.468;11.200;2023-01-15T10:33:05;5.65;;;0.77;;
50056;SDS011;36875;49.468;11.200;2023-01-15T10:35:46;2.67;;;0.88;;
50056;SDS011;36875;49.468;11.200;2023-01-15T10:38:20;6.82;;;2.05;;
50056;SDS011;36875;49.468;11.200;2023-01-15T10:43:43;7.75;;;1.33;;
50056;SDS011;36875;49.468;11.200;2023-01-15T10:46:14;7.88;;;1.02;;
50056;SDS011;36875;49.468;11.200;2023-01-15T10:48:43;5.00;;;1.08;;
50056;SDS011;36875;49.468;11.200;2023-01-15T10:51:12;8.57;;;1.25;;
50056;SDS011;36875;49.468;11.200;2023-01-15T10:53:43;9.05;;;1.20;;
50056;SDS011;36875;49.468;11.200;2023-01-15T10:56:14;249.18;;;156.45;;
50056;SDS011;36875;49.468;11.200;2023-01-15T10:58:48;181.23;;;112.10;;
50056;SDS011;36875;49.468;11.200;2023-01-15T11:01:18;85.80;;;52.55;;
50056;SDS011;36875;49.468;11.200;2023-01-15T11:03:47;52.33;;;31.40;;
50056;SDS011;36875;49.468;11.200;2023-01-15T11:06:14;45.17;;;27.08;;
50056;SDS011;36875;49.468;11.200;2023-01-15T11:08:43;45.50;;;27.63;;
50056;SDS011;36875;49.468;11.200;2023-01-15T11:11:15;43.85;;;26.15;;
50056;SDS011;36875;49.468;11.200;2023-01-15T11:13:51;38.30;;;24.25;;
50056;SDS011;36875;49.468;11.200;2023-01-15T11:16:37;39.25;;;23.58;;
50056;SDS011;36875;49.468;11.200;2023-01-15T11:19:24;37.42;;;22.90;;
50056;SDS011;36875;49.468;11.200;2023-01-15T11:22:04;32.90;;;20.58;;
50056;SDS011;36875;49.468;11.200;2023-01-15T11:24:34;33.20;;;19.23;;
50056;SDS011;36875;49.468;11.200;2023-01-15T11:27:01;31.05;;;19.23;;
50056;SDS011;36875;49.468;11.200;2023-01-15T11:29:30;31.58;;;18.83;;
50056;SDS011;36875;49.468;11.200;2023-01-15T11:31:58;27.05;;;17.50;;
50056;SDS011;36875;49.468;11.200;2023-01-15T11:34:23;24.92;;;15.68;;
50056;SDS011;36875;49.468;11.200;2023-01-15T11:36:59;23.88;;;14.70;;
50056;SDS011;36875;49.468;11.200;2023-01-15T11:39:26;23.17;;;14.18;;
50056;SDS011;36875;49.468;11.200;2023-01-15T11:41:58;21.33;;;13.43;;
50056;SDS011;36875;49.468;11.200;2023-01-15T11:44:50;17.55;;;11.90;;
50056;SDS011;36875;49.468;11.200;2023-01-15T11:47:35;17.67;;;11.60;;
50056;SDS011;36875;49.468;11.200;2023-01-15T11:50:19;18.17;;;10.45;;
50056;SDS011;36875;49.468;11.200;2023-01-15T11:53:04;17.83;;;10.70;;
50056;SDS011;36875;49.468;11.200;2023-01-15T11:55:37;15.35;;;9.40;;
50056;SDS011;36875;49.468;11.200;2023-01-15T11:58:04;13.02;;;9.05;;
50056;SDS011;36875;49.468;11.200;2023-01-15T12:00:34;14.55;;;8.75;;
50056;SDS011;36875;49.468;11.200;2023-01-15T12:03:10;12.45;;;8.10;;
50056;SDS011;36875;49.468;11.200;2023-01-15T12:05:43;12.77;;;8.50;;
50056;SDS011;36875;49.468;11.200;2023-01-15T12:08:14;12.82;;;7.47;;
50056;SDS011;36875;49.468;11.200;2023-01-15T12:10:48;13.65;;;7.47;;
50056;SDS011;36875;49.468;11.200;2023-01-15T12:13:33;10.48;;;6.93;;
50056;SDS011;36875;49.468;11.200;2023-01-15T12:16:09;11.18;;;6.18;;
50056;SDS011;36875;49.468;11.200;2023-01-15T12:18:49;10.57;;;6.47;;
50056;SDS011;36875;49.468;11.200;2023-01-15T12:21:27;10.43;;;6.40;;
50056;SDS011;36875;49.468;11.200;2023-01-15T12:27:02;10.13;;;5.60;;
50056;SDS011;36875;49.468;11.200;2023-01-15T12:29:45;9.73;;;5.20;;
50056;SDS011;36875;49.468;11.200;2023-01-15T12:32:14;8.43;;;5.28;;
50056;SDS011;36875;49.468;11.200;2023-01-15T12:34:44;8.30;;;5.07;;
50056;SDS011;36875;49.468;11.200;2023-01-15T12:39:45;7.93;;;4.82;;
50056;SDS011;36875;49.468;11.200;2023-01-15T12:42:14;8.70;;;4.32;;
50056;SDS011;36875;49.468;11.200;2023-01-15T12:45:04;6.82;;;4.45;;
50056;SDS011;36875;49.468;11.200;2023-01-15T12:47:35;9.95;;;4.53;;
50056;SDS011;36875;49.468;11.200;2023-01-15T12:50:07;7.30;;;3.72;;
50056;SDS011;36875;49.468;11.200;2023-01-15T12:52:46;6.15;;;3.03;;
50056;SDS011;36875;49.468;11.200;2023-01-15T12:55:18;7.35;;;2.50;;
50056;SDS011;36875;49.468;11.200;2023-01-15T12:57:48;6.72;;;2.33;;
50056;SDS011;36875;49.468;11.200;2023-01-15T13:00:19;4.22;;;2.25;;
50056;SDS011;36875;49.468;11.200;2023-01-15T13:02:54;6.20;;;2.60;;
50056;SDS011;36875;49.468;11.200;2023-01-15T13:05:27;5.05;;;2.10;;
50056;SDS011;36875;49.468;11.200;2023-01-15T13:07:57;4.30;;;2.20;;
50056;SDS011;36875;49.468;11.200;2023-01-15T13:10:30;6.75;;;2.83;;
50056;SDS011;36875;49.468;11.200;2023-01-15T13:13:01;5.95;;;2.88;;
50056;SDS011;36875;49.468;11.200;2023-01-15T13:15:40;7.30;;;2.78;;
50056;SDS011;36875;49.468;11.200;2023-01-15T13:18:15;9.27;;;3.47;;
50056;SDS011;36875;49.468;11.200;2023-01-15T13:20:46;7.00;;;2.75;;
50056;SDS011;36875;49.468;11.200;2023-01-15T13:23:17;7.75;;;2.90;;
50056;SDS011;36875;49.468;11.200;2023-01-15T13:28:35;5.88;;;2.28;;
50056;SDS011;36875;49.468;11.200;2023-01-15T13:31:11;5.78;;;2.60;;
50056;SDS011;36875;49.468;11.200;2023-01-15T13:33:52;6.35;;;2.60;;
50056;SDS011;36875;49.468;11.200;2023-01-15T13:36:22;6.70;;;2.33;;
50056;SDS011;36875;49.468;11.200;2023-01-15T13:38:51;12.15;;;2.70;;
50056;SDS011;36875;49.468;11.200;2023-01-15T13:41:20;4.60;;;2.22;;
50056;SDS011;36875;49.468;11.200;2023-01-15T13:44:12;6.28;;;2.40;;
50056;SDS011;36875;49.468;11.200;2023-01-15T13:46:42;4.53;;;2.38;;
50056;SDS011;36875;49.468;11.200;2023-01-15T13:49:15;8.50;;;2.58;;
50056;SDS011;36875;49.468;11.200;2023-01-15T13:51:45;5.20;;;2.42;;
50056;SDS011;36875;49.468;11.200;2023-01-15T13:54:13;5.25;;;2.20;;
50056;SDS011;36875;49.468;11.200;2023-01-15T13:56:42;5.20;;;2.10;;
50056;SDS011;36875;49.468;11.200;2023-01-15T14:02:17;5.63;;;1.92;;
50056;SDS011;36875;49.468;11.200;2023-01-15T14:04:47;3.72;;;2.30;;
50056;SDS011;36875;49.468;11.200;2023-01-15T14:07:17;6.32;;;2.00;;
50056;SDS011;36875;49.468;11.200;2023-01-15T14:09:43;3.80;;;2.08;;
50056;SDS011;36875;49.468;11.200;2023-01-15T14:12:10;5.20;;;2.40;;
50056;SDS011;36875;49.468;11.200;2023-01-15T14:14:45;5.32;;;1.90;;
50056;SDS011;36875;49.468;11.200;2023-01-15T14:17:30;3.83;;;2.00;;
50056;SDS011;36875;49.468;11.200;2023-01-15T14:20:25;3.17;;;1.80;;
50056;SDS011;36875;49.468;11.200;2023-01-15T14:23:03;3.40;;;1.52;;
50056;SDS011;36875;49.468;11.200;2023-01-15T14:25:46;6.38;;;2.03;;
50056;SDS011;36875;49.468;11.200;2023-01-15T14:28:29;5.45;;;1.90;;
50056;SDS011;36875;49.468;11.200;2023-01-15T14:31:10;3.65;;;1.90;;
50056;SDS011;36875;49.468;11.200;2023-01-15T14:33:52;4.95;;;1.77;;
50056;SDS011;36875;49.468;11.200;2023-01-15T14:36:30;4.13;;;1.80;;
50056;SDS011;36875;49.468;11.200;2023-01-15T14:39:02;4.43;;;1.60;;
50056;SDS011;36875;49.468;11.200;2023-01-15T14:41:46;5.93;;;1.80;;
50056;SDS011;36875;49.468;11.200;2023-01-15T14:44:40;4.60;;;1.75;;
50056;SDS011;36875;49.468;11.200;2023-01-15T14:47:10;4.65;;;1.55;;
50056;SDS011;36875;49.468;11.200;2023-01-15T14:49:57;3.58;;;1.23;;
50056;SDS011;36875;49.468;11.200;2023-01-15T14:52:25;5.03;;;1.80;;
50056;SDS011;36875;49.468;11.200;2023-01-15T14:54:51;7.03;;;1.85;;
50056;SDS011;36875;49.468;11.200;2023-01-15T14:57:18;15.02;;;3.20;;
50056;SDS011;36875;49.468;11.200;2023-01-15T14:59:47;4.82;;;1.50;;
50056;SDS011;36875;49.468;11.200;2023-01-15T15:02:17;7.85;;;1.80;;
50056;SDS011;36875;49.468;11.200;2023-01-15T15:04:47;5.50;;;1.80;;
50056;SDS011;36875;49.468;11.200;2023-01-15T15:07:18;4.78;;;1.67;;
50056;SDS011;36875;49.468;11.200;2023-01-15T15:09:52;3.75;;;1.38;;